Time;durP1;ratioP1;P1;durP2;ratioP2;P2;SDS_P1;SDS_P2;PMS_P1;PMS_P2;Temp;Humidity;BMP_temperature;BMP_pressure;BME280_temperature;BME280_humidity;BME280_pressure;Samples;Min_cycle;Max_cycle;Signal;HPM_P1;HPM_P2
2023/07/13 00:07:46;;;;;;;5.82;1.50;;;;;;;18.18;91.98;101151.81;5017118;28;20061;-86
2023/07/13 00:10:12;;;;;;;7.88;2.00;;;;;;;18.08;93.06;101151.50;5037064;28;20057;-87
2023/07/13 00:12:38;;;;;;;5.57;1.63;;;;;;;18.22;91.52;101155.41;5014125;28;20037;-86
2023/07/13 00:15:11;;;;;;;6.13;2.40;;;;;;;18.07;92.13;101137.78;5007796;28;20044;-87
2023/07/13 00:17:38;;;;;;;;;;;;;;;18.03;93.85;101142.69;5016186;28;20030;-87
2023/07/13 00:20:04;;;;;;;3.58;1.60;;;;;;;18.09;92.31;101140.97;5021256;28;19971;-87
2023/07/13 00:22:30;;;;;;;5.63;1.80;;;;;;;18.08;92.11;101137.31;5014968;28;20026;-86
2023/07/13 00:24:56;;;;;;;8.15;1.92;;;;;;;17.92;94.73;101153.31;5034116;28;20374;-86
2023/07/13 00:27:21;;;;;;;6.57;1.80;;;;;;;18.02;94.15;101141.84;5012633;28;20033;-88
2023/07/13 00:29:47;;;;;;;6.28;2.00;;;;;;;17.91;95.13;101155.34;5008075;28;20481;-87
2023/07/13 00:32:12;;;;;;;7.30;1.85;;;;;;;17.81;95.91;101153.41;5012620;28;20482;-86
2023/07/13 00:34:38;;;;;;;4.13;1.55;;;;;;;17.81;94.83;101142.88;5018945;28;20091;-86
2023/07/13 00:37:06;;;;;;;7.38;3.22;;;;;;;17.83;96.00;101156.66;5015107;28;20163;-87
2023/07/13 00:39:35;;;;;;;4.45;2.15;;;;;;;17.72;95.93;101153.09;5014712;28;20033;-86
2023/07/13 00:42:01;;;;;;;6.20;2.53;;;;;;;17.67;97.04;101155.19;5016049;28;20816;-87
2023/07/13 00:44:27;;;;;;;8.20;1.77;;;;;;;17.67;97.28;101155.19;5013959;28;20039;-88
2023/07/13 00:46:53;;;;;;;5.28;2.53;;;;;;;17.84;96.03;101149.78;5009870;28;20036;-86
2023/07/13 00:49:21;;;;;;;3.60;1.85;;;;;;;17.98;94.25;101157.28;5014342;28;20049;-86
2023/07/13 00:51:58;;;;;;;5.60;1.55;;;;;;;17.77;95.89;101152.63;5016909;28;20032;-86
2023/07/13 00:54:29;;;;;;;8.23;2.05;;;;;;;17.66;97.13;101152.75;5018583;28;20441;-87
2023/07/13 00:57:00;;;;;;;5.40;1.95;;;;;;;17.77;95.70;101146.97;5011847;28;20524;-87
2023/07/13 00:59:26;;;;;;;7.53;2.03;;;;;;;17.62;97.29;101152.78;5020362;28;20029;-86
2023/07/13 01:01:52;;;;;;;7.55;2.55;;;;;;;17.65;96.88;101142.66;5015719;28;23032;-87
2023/07/13 01:04:18;;;;;;;7.40;2.10;;;;;;;17.89;94.56;101152.13;5018596;28;20162;-87
2023/07/13 01:06:45;;;;;;;9.05;1.98;;;;;;;17.68;97.95;101164.47;5041489;28;20039;-86
2023/07/13 01:09:11;;;;;;;8.20;2.30;;;;;;;17.55;97.65;101152.88;5060173;28;20112;-87
2023/07/13 01:11:37;;;;;;;7.07;1.92;;;;;;;17.79;95.61;101165.16;5059253;28;20059;-86
2023/07/13 01:14:03;;;;;;;5.45;2.15;;;;;;;17.63;98.21;101168.56;5059950;28;20059;-87
2023/07/13 01:16:31;;;;;;;8.65;3.35;;;;;;;17.50;98.37;101167.50;5054900;28;20957;-87
2023/07/13 01:18:58;;;;;;;6.63;2.38;;;;;;;17.80;97.04;101168.81;5068159;28;20439;-86
2023/07/13 01:21:25;;;;;;;13.48;3.65;;;;;;;17.79;96.32;101172.84;5056821;28;20029;-87
2023/07/13 01:23:50;;;;;;;11.77;2.22;;;;;;;17.75;96.72;101152.25;5061755;28;20037;-87
2023/07/13 01:26:16;;;;;;;6.13;1.67;;;;;;;17.75;97.49;101172.06;5061909;28;20468;-87
2023/07/13 01:28:42;;;;;;;8.07;2.00;;;;;;;17.90;95.97;101167.91;5062079;28;20059;-87
2023/07/13 01:31:09;;;;;;;7.25;3.78;;;;;;;17.65;97.84;101159.66;5062250;28;20373;-86
2023/07/13 01:33:36;;;;;;;5.78;2.03;;;;;;;17.57;98.36;101161.75;5065542;28;20055;-87
2023/07/13 01:36:02;;;;;;;6.20;2.25;;;;;;;17.56;98.71;101157.31;5063714;28;20036;-87
2023/07/13 01:38:27;;;;;;;10.98;2.13;;;;;;;17.66;96.16;101166.91;5059862;28;20029;-86
2023/07/13 01:40:53;;;;;;;8.52;1.90;;;;;;;17.80;98.34;101163.13;5060838;28;20025;-87
2023/07/13 01:43:19;;;;;;;4.05;1.55;;;;;;;17.85;96.29;101165.53;5060316;28;20101;-87
2023/07/13 01:45:45;;;;;;;6.07;2.30;;;;;;;17.82;97.86;101163.53;5063004;28;20579;-86
2023/07/13 01:48:11;;;;;;;8.80;2.00;;;;;;;17.91;96.24;101166.66;5058727;28;20036;-86
2023/07/13 01:50:37;;;;;;;6.05;2.30;;;;;;;17.76;96.87;101159.53;5066960;28;20578;-86
2023/07/13 01:53:02;;;;;;;5.95;2.25;;;;;;;17.88;95.44;101167.53;5066311;28;20492;-86
2023/07/13 01:55:29;;;;;;;7.03;2.28;;;;;;;17.79;97.64;101161.50;5067007;28;20032;-86
2023/07/13 01:57:55;;;;;;;4.97;1.92;;;;;;;17.71;97.65;101165.63;5066809;28;20027;-87
2023/07/13 02:00:20;;;;;;;5.22;2.22;;;;;;;17.68;98.57;101165.25;5077166;28;20054;-86
2023/07/13 02:02:46;;;;;;;8.13;2.58;;;;;;;17.62;99.07;101166.94;5063332;28;20502;-86
2023/07/13 02:05:12;;;;;;;6.93;2.50;;;;;;;17.59;98.74;101167.78;5072492;28;20055;-86
2023/07/13 02:07:39;;;;;;;11.15;2.03;;;;;;;17.61;97.96;101173.84;5079623;28;20024;-87
2023/07/13 02:10:06;;;;;;;5.63;2.05;;;;;;;17.47;100.00;101169.09;5063167;28;20036;-86
2023/07/13 02:12:31;;;;;;;11.35;2.22;;;;;;;17.46;99.92;101167.50;5067118;28;20115;-87
2023/07/13 02:14:57;;;;;;;7.03;2.15;;;;;;;17.23;100.00;101170.94;5063138;28;20161;-87
2023/07/13 02:17:22;;;;;;;6.80;1.85;;;;;;;17.58;98.25;101176.69;5063597;28;20037;-87
2023/07/13 02:19:48;;;;;;;8.68;2.60;;;;;;;17.34;99.41;101161.56;5061797;28;20028;-87
2023/07/13 02:22:14;;;;;;;10.73;3.30;;;;;;;17.25;100.00;101165.69;5057433;28;20029;-87
2023/07/13 02:24:39;;;;;;;9.90;2.78;;;;;;;17.02;100.00;101165.47;5060521;28;20448;-87
2023/07/13 02:27:05;;;;;;;7.63;2.00;;;;;;;17.31;99.61;101159.56;5061293;28;20037;-86
2023/07/13 02:29:30;;;;;;;11.43;2.40;;;;;;;17.26;99.78;101161.63;5080622;28;20025;-87
2023/07/13 02:31:56;;;;;;;7.30;1.90;;;;;;;16.99;100.00;101166.28;5061241;28;20393;-87
2023/07/13 02:34:21;;;;;;;6.20;2.17;;;;;;;17.16;99.87;101159.72;5066515;28;20388;-86
2023/07/13 02:36:47;;;;;;;4.80;2.35;;;;;;;16.87;100.00;101159.13;5064261;28;20031;-86
2023/07/13 02:39:13;;;;;;;5.13;1.90;;;;;;;16.77;100.00;101163.59;5061417;28;20347;-87
2023/07/13 02:41:39;;;;;;;7.97;2.05;;;;;;;17.02;100.00;101159.81;5064004;28;20029;-87
2023/07/13 02:44:04;;;;;;;8.30;2.03;;;;;;;17.07;100.00;101167.84;5066458;28;20550;-87
2023/07/13 02:46:34;;;;;;;5.82;1.77;;;;;;;17.18;99.86;101162.91;5065895;28;20027;-87
2023/07/13 02:49:00;;;;;;;3.85;2.22;;;;;;;17.23;99.08;101170.94;5064938;28;20115;-86
2023/07/13 02:51:29;;;;;;;9.05;2.88;;;;;;;17.17;100.00;101161.31;5064736;28;20115;-86
2023/07/13 02:53:55;;;;;;;8.25;2.47;;;;;;;17.15;100.00;101166.56;5065988;28;20024;-87
2023/07/13 02:56:25;;;;;;;9.82;2.22;;;;;;;17.00;100.00;101165.09;5060285;28;20362;-87
2023/07/13 02:58:51;;;;;;;7.57;1.98;;;;;;;17.11;100.00;101167.81;5064865;28;20087;-87
2023/07/13 03:01:18;;;;;;;4.20;1.83;;;;;;;17.05;100.00;101173.94;5063240;28;20033;-87
2023/07/13 03:03:45;;;;;;;4.93;1.90;;;;;;;17.04;100.00;101169.47;5063192;28;20029;-86
2023/07/13 03:06:11;;;;;;;7.88;2.50;;;;;;;17.18;99.61;101174.22;5058599;28;20558;-87
2023/07/13 03:08:37;;;;;;;5.15;2.28;;;;;;;16.98;100.00;101165.50;5058440;28;20137;-86
2023/07/13 03:11:05;;;;;;;4.82;2.08;;;;;;;17.04;100.00;101174.34;5054737;28;20036;-87
2023/07/13 03:13:31;;;;;;;7.63;2.13;;;;;;;16.97;100.00;101163.06;5055991;28;20495;-86
2023/07/13 03:15:57;;;;;;;7.88;2.40;;;;;;;17.07;100.00;101181.97;5059808;28;20032;-87
2023/07/13 03:18:22;;;;;;;5.72;2.35;;;;;;;16.97;100.00;101165.91;5057214;28;20028;-87
2023/07/13 03:20:51;;;;;;;8.75;2.70;;;;;;;17.01;100.00;101183.63;5063859;28;20111;-87
2023/07/13 03:23:16;;;;;;;7.13;2.13;;;;;;;17.05;100.00;101178.75;5060871;28;20433;-87
2023/07/13 03:25:42;;;;;;;7.10;2.10;;;;;;;16.93;100.00;101182.91;5062821;28;20113;-86
2023/07/13 03:28:08;;;;;;;7.72;2.17;;;;;;;16.97;100.00;101183.69;5058141;28;20024;-87
2023/07/13 03:30:33;;;;;;;3.92;2.00;;;;;;;16.92;100.00;101191.78;5055524;28;20025;-87
2023/07/13 03:32:59;;;;;;;9.90;2.20;;;;;;;17.03;100.00;101201.81;5062713;28;20385;-87
2023/07/13 03:35:24;;;;;;;7.97;2.67;;;;;;;17.06;100.00;101189.66;5072218;28;20024;-86
2023/07/13 03:37:51;;;;;;;4.55;2.45;;;;;;;17.15;100.00;101192.03;5061805;28;20051;-87
2023/07/13 03:40:16;;;;;;;12.60;2.92;;;;;;;16.81;100.00;101195.50;5061242;28;20044;-86
2023/07/13 03:42:44;;;;;;;7.70;2.30;;;;;;;17.10;99.68;101195.31;5067457;28;20598;-87
2023/07/13 03:45:10;;;;;;;6.07;2.88;;;;;;;16.94;100.00;101198.63;5060299;28;20039;-87
2023/07/13 03:47:35;;;;;;;6.45;1.83;;;;;;;16.59;100.00;101199.63;5060170;28;20029;-87
2023/07/13 03:50:01;;;;;;;7.65;2.70;;;;;;;16.63;100.00;101200.41;5065436;28;20079;-87
2023/07/13 03:52:26;;;;;;;5.32;1.88;;;;;;;16.67;100.00;101207.66;5061258;28;20028;-87
2023/07/13 03:54:52;;;;;;;10.15;3.00;;;;;;;16.60;100.00;101204.88;5059458;28;20024;-88
2023/07/13 03:57:18;;;;;;;8.32;2.97;;;;;;;16.49;100.00;101209.78;5066613;28;20028;-88
2023/07/13 03:59:44;;;;;;;5.43;2.53;;;;;;;16.52;100.00;101216.63;5066553;28;20107;-87
2023/07/13 04:02:09;;;;;;;9.70;4.32;;;;;;;16.26;100.00;101204.63;5064905;28;20119;-88
2023/07/13 04:04:35;;;;;;;5.10;2.42;;;;;;;16.59;100.00;101214.56;5066699;28;20111;-88
2023/07/13 04:54:56;;;;;;;5.25;2.20;;;;;;;16.91;100.00;101243.91;5048154;28;20109;-87
2023/07/13 04:57:21;;;;;;;4.95;2.33;;;;;;;16.88;100.00;101244.72;5050782;28;20463;-87
2023/07/13 04:59:47;;;;;;;5.95;2.78;;;;;;;16.85;100.00;101241.50;5062541;28;20443;-88
2023/07/13 05:02:12;;;;;;;10.77;3.88;;;;;;;16.78;100.00;101252.84;5053692;28;20032;-88
2023/07/13 05:04:38;;;;;;;9.85;2.55;;;;;;;16.82;100.00;101245.19;5060450;28;20460;-87
2023/07/13 05:07:03;;;;;;;14.07;2.97;;;;;;;16.70;100.00;101254.09;5051999;28;20029;-87
2023/07/13 05:09:29;;;;;;;7.35;2.13;;;;;;;16.85;100.00;101247.16;5057177;28;20036;-88
2023/07/13 05:11:54;;;;;;;7.97;3.03;;;;;;;16.95;100.00;101253.16;5052439;28;20039;-88
2023/07/13 05:14:19;;;;;;;7.20;2.75;;;;;;;16.92;100.00;101254.00;5062224;28;20043;-88
2023/07/13 05:16:45;;;;;;;5.53;1.98;;;;;;;16.97;100.00;101248.72;5058916;28;20048;-88
2023/07/13 05:19:12;;;;;;;9.70;2.60;;;;;;;16.94;100.00;101248.75;5054349;28;20039;-88
2023/07/13 05:21:38;;;;;;;6.45;2.78;;;;;;;16.81;100.00;101259.72;5073342;28;20081;-87
2023/07/13 05:24:03;;;;;;;6.22;2.40;;;;;;;16.85;100.00;101263.34;5062878;28;20036;-88
2023/07/13 05:26:29;;;;;;;5.25;2.38;;;;;;;16.72;100.00;101271.44;5055902;28;20032;-88
2023/07/13 05:28:54;;;;;;;7.18;2.63;;;;;;;16.64;100.00;101265.00;5063313;28;20105;-88
2023/07/13 05:31:20;;;;;;;9.25;2.40;;;;;;;16.83;100.00;101272.22;5061875;28;20633;-88
2023/07/13 05:33:45;;;;;;;7.20;2.63;;;;;;;17.05;100.00;101274.91;5061081;28;20572;-88
2023/07/13 05:36:12;;;;;;;8.70;2.63;;;;;;;17.05;100.00;101287.06;5059585;28;20021;-88
2023/07/13 05:38:37;;;;;;;5.38;2.30;;;;;;;16.97;100.00;101276.16;5061863;28;20033;-88
2023/07/13 05:41:03;;;;;;;7.43;2.67;;;;;;;17.20;100.00;101278.47;5062072;28;20051;-88
2023/07/13 05:43:28;;;;;;;10.05;3.08;;;;;;;18.12;100.00;101283.81;5059653;28;20148;-87
2023/07/13 05:45:55;;;;;;;12.93;3.25;;;;;;;17.91;100.00;101294.09;5061587;28;20620;-88
2023/07/13 05:48:21;;;;;;;9.88;2.78;;;;;;;17.79;100.00;101294.59;5060740;28;20594;-83
2023/07/13 05:50:47;;;;;;;6.22;2.92;;;;;;;17.80;100.00;101296.22;5056364;28;20541;-83
2023/07/13 05:53:13;;;;;;;12.65;2.85;;;;;;;17.81;100.00;101295.78;5057462;28;20310;-82
2023/07/13 05:55:43;;;;;;;4.18;2.05;;;;;;;18.57;100.00;101298.66;5054476;28;20123;-82
2023/07/13 05:58:09;;;;;;;7.20;2.40;;;;;;;18.45;100.00;101300.03;5052941;28;21742;-81
2023/07/13 06:00:34;;;;;;;10.32;3.95;;;;;;;18.27;100.00;101300.22;5060023;28;20392;-82
2023/07/13 06:03:00;;;;;;;12.50;3.05;;;;;;;19.22;99.00;101304.31;5062131;28;20028;-82
2023/07/13 06:05:27;;;;;;;6.47;1.92;;;;;;;19.54;95.57;101305.88;5055789;28;20074;-82
2023/07/13 06:07:52;;;;;;;8.68;2.80;;;;;;;19.80;95.88;101312.00;5073202;28;20034;-81
2023/07/13 06:10:18;;;;;;;10.77;3.42;;;;;;;19.28;96.97;101308.28;5071837;28;20431;-78
2023/07/13 06:12:43;;;;;;;11.43;2.53;;;;;;;19.58;95.28;101317.97;5060223;28;20105;-76
2023/07/13 06:15:09;;;;;;;8.32;2.90;;;;;;;19.80;92.89;101312.00;5060351;28;20063;-77
2023/07/13 06:17:34;;;;;;;8.70;2.40;;;;;;;20.30;92.32;101328.13;5061009;28;20043;-76
2023/07/13 06:20:00;;;;;;;6.63;3.10;;;;;;;19.47;95.06;101318.13;5060548;28;20029;-78
2023/07/13 06:22:25;;;;;;;11.95;3.55;;;;;;;18.66;100.00;101315.19;5058299;28;20024;-78
2023/07/13 06:24:52;;;;;;;8.77;2.15;;;;;;;18.94;99.19;101313.25;5061789;28;20385;-78
2023/07/13 06:27:17;;;;;;;6.93;2.10;;;;;;;19.25;96.50;101323.34;5066234;28;20062;-78
2023/07/13 06:29:44;;;;;;;7.68;2.03;;;;;;;19.13;98.97;101332.44;5059740;28;20436;-78
2023/07/13 06:32:10;;;;;;;12.95;3.38;;;;;;;19.10;100.00;101327.63;5062075;28;20142;-79
2023/07/13 06:34:35;;;;;;;15.15;2.95;;;;;;;18.84;99.45;101321.44;5065321;28;20088;-79
2023/07/13 06:37:01;;;;;;;8.70;2.63;;;;;;;18.89;100.00;101323.84;5057103;28;20036;-79
2023/07/13 06:39:26;;;;;;;8.32;2.92;;;;;;;18.98;100.00;101336.69;5060626;28;20035;-79
2023/07/13 06:41:52;;;;;;;7.30;3.83;;;;;;;19.37;97.54;101332.50;5070761;28;20028;-79
2023/07/13 06:44:17;;;;;;;6.68;2.63;;;;;;;19.61;95.95;101339.03;5067310;28;20032;-79
2023/07/13 06:46:43;;;;;;;8.93;2.47;;;;;;;19.74;95.73;101342.13;5056854;28;20541;-79
2023/07/13 06:49:09;;;;;;;7.53;2.90;;;;;;;19.07;100.00;101334.94;5061678;28;20044;-79
2023/07/13 06:51:34;;;;;;;13.50;4.40;;;;;;;18.99;100.00;101338.28;5064556;28;20070;-79
2023/07/13 06:53:59;;;;;;;5.85;2.78;;;;;;;19.05;100.00;101330.91;5060906;28;20048;-78
2023/07/13 06:56:25;;;;;;;8.63;2.35;;;;;;;19.23;96.61;101331.47;5059682;28;20040;-79
2023/07/13 06:58:50;;;;;;;12.20;3.58;;;;;;;19.30;98.28;101334.22;5060591;28;20048;-79
2023/07/13 07:01:16;;;;;;;11.30;2.63;;;;;;;19.01;100.00;101338.66;5071950;28;20020;-79
2023/07/13 07:03:41;;;;;;;12.95;4.30;;;;;;;19.45;100.00;101342.53;5062669;28;20039;-79
2023/07/13 07:06:18;;;;;;;8.77;2.92;;;;;;;19.38;99.31;101348.31;5060786;28;20028;-79
2023/07/13 07:08:45;;;;;;;11.35;3.20;;;;;;;19.43;99.04;101350.66;5064971;28;20499;-79
2023/07/13 07:11:18;;;;;;;9.27;3.65;;;;;;;19.74;98.02;101348.59;5072312;28;20133;-79
2023/07/13 07:13:43;;;;;;;10.45;2.95;;;;;;;19.49;97.95;101349.75;5058833;28;20032;-79
2023/07/13 07:16:09;;;;;;;9.65;3.60;;;;;;;19.54;100.00;101351.28;5063045;28;20028;-79
2023/07/13 07:18:34;;;;;;;8.27;3.00;;;;;;;19.67;99.33;101349.47;5062334;28;20031;-78
2023/07/13 07:21:00;;;;;;;6.45;3.95;;;;;;;19.76;97.10;101351.81;5068355;28;20037;-77
2023/07/13 07:23:25;;;;;;;14.77;4.32;;;;;;;19.82;99.84;101352.13;5066809;28;20037;-79
2023/07/13 07:25:51;;;;;;;13.02;3.88;;;;;;;19.78;99.92;101343.66;5069615;28;20017;-77
2023/07/13 07:28:20;;;;;;;11.18;4.05;;;;;;;19.70;98.68;101347.84;5069277;28;20061;-79
2023/07/13 07:30:46;;;;;;;15.13;5.82;;;;;;;19.46;99.28;101344.94;5075337;28;20035;-78
2023/07/13 07:33:12;;;;;;;9.38;3.55;;;;;;;20.00;98.66;101346.13;5065236;28;20397;-78
2023/07/13 07:35:38;;;;;;;5.90;3.40;;;;;;;19.99;98.17;101348.19;5062764;28;20047;-78
2023/07/13 07:38:03;;;;;;;7.50;4.03;;;;;;;;;;5063169;28;20134;-79
2023/07/13 07:40:29;;;;;;;10.00;4.05;;;;;;;20.00;97.61;101355.47;5068171;28;20036;-79
2023/07/13 07:42:54;;;;;;;5.80;3.47;;;;;;;20.00;94.12;101343.28;5066187;28;20495;-79
2023/07/13 07:45:21;;;;;;;8.23;4.13;;;;;;;20.21;94.35;101342.13;5071876;28;20043;-79
2023/07/13 07:47:47;;;;;;;10.25;5.00;;;;;;;20.01;94.97;101345.72;5076664;28;20032;-78
2023/07/13 07:50:13;;;;;;;5.97;3.53;;;;;;;19.89;95.30;101340.63;5053649;28;20401;-78
2023/07/13 07:52:38;;;;;;;11.13;5.20;;;;;;;19.89;94.27;101337.78;5061939;28;20028;-78
2023/07/13 07:55:06;;;;;;;15.75;5.50;;;;;;;19.55;97.18;101338.72;5056313;28;20036;-79
2023/07/13 07:57:32;;;;;;;7.95;3.97;;;;;;;20.11;94.70;101349.59;5058022;28;20131;-78
2023/07/13 07:59:58;;;;;;;5.13;3.55;;;;;;;20.40;92.29;101354.75;5074113;28;20111;-78
2023/07/13 08:02:24;;;;;;;7.38;3.38;;;;;;;20.15;93.50;101358.84;5065085;28;20032;-78
2023/07/13 08:04:50;;;;;;;12.32;4.15;;;;;;;20.54;91.14;101359.38;5066575;28;20040;-78
2023/07/13 08:07:16;;;;;;;11.98;3.95;;;;;;;20.20;92.16;101374.63;5062848;28;20032;-78
2023/07/13 08:09:41;;;;;;;8.52;4.25;;;;;;;20.50;91.40;101371.63;5059572;28;20031;-78
2023/07/13 08:12:07;;;;;;;9.25;3.95;;;;;;;20.52;91.43;101360.63;5062829;28;20120;-78
2023/07/13 08:14:32;;;;;;;9.52;4.10;;;;;;;20.43;90.70;101363.22;5061355;28;20039;-78
2023/07/13 08:16:58;;;;;;;9.20;4.15;;;;;;;20.76;89.36;101346.34;5065424;28;20024;-78
2023/07/13 08:19:23;;;;;;;9.82;4.28;;;;;;;20.73;88.03;101337.91;5066870;28;20020;-78
2023/07/13 08:21:49;;;;;;;8.13;3.80;;;;;;;20.52;89.33;101351.28;5064332;28;20028;-78
2023/07/13 08:24:14;;;;;;;5.72;3.83;;;;;;;20.44;92.17;101361.97;5073803;28;20039;-78
2023/07/13 08:26:40;;;;;;;7.55;3.90;;;;;;;20.69;89.23;101357.88;5065255;28;20030;-78
2023/07/13 08:29:05;;;;;;;6.20;3.45;;;;;;;19.73;89.08;101354.69;5061901;28;20047;-78
2023/07/13 08:31:31;;;;;;;10.20;4.40;;;;;;;19.75;91.82;101360.75;5056239;28;20507;-78
2023/07/13 08:33:56;;;;;;;6.38;3.58;;;;;;;19.81;90.65;101359.03;5059011;28;20114;-78
2023/07/13 08:36:22;;;;;;;7.82;4.00;;;;;;;20.06;92.71;101370.78;5067988;28;20108;-78
2023/07/13 08:38:47;;;;;;;12.00;4.75;;;;;;;19.47;98.15;101369.25;5064034;28;20469;-78
2023/07/13 08:41:18;;;;;;;9.73;4.03;;;;;;;19.33;100.00;101377.97;5065022;28;20039;-78
2023/07/13 08:43:48;;;;;;;9.05;4.25;;;;;;;19.68;96.68;101376.63;5064813;28;20058;-78
2023/07/13 08:46:32;;;;;;;6.22;3.47;;;;;;;19.67;96.54;101388.44;5055697;28;20271;-78
2023/07/13 08:49:09;;;;;;;7.40;3.58;;;;;;;19.23;100.00;101388.25;5065078;28;20036;-79
2023/07/13 08:51:40;;;;;;;5.38;2.97;;;;;;;19.47;98.99;101388.31;5065152;28;20040;-78
2023/07/13 08:54:24;;;;;;;4.47;3.50;;;;;;;20.22;93.97;101386.38;5061383;28;20468;-77
2023/07/13 08:56:52;;;;;;;7.45;3.78;;;;;;;20.03;94.79;101387.91;5085126;28;20043;-78
2023/07/13 08:59:21;;;;;;;9.77;3.80;;;;;;;20.34;93.95;101391.41;5070492;28;20357;-79
2023/07/13 09:01:55;;;;;;;7.15;3.50;;;;;;;20.51;93.48;101396.00;5069493;28;20045;-79
2023/07/13 09:04:23;;;;;;;10.18;3.78;;;;;;;20.75;93.70;101398.81;5082951;28;21633;-78
2023/07/13 09:07:08;;;;;;;5.03;3.20;;;;;;;19.79;95.72;101402.06;5065492;28;20032;-78
2023/07/13 09:09:34;;;;;;;8.23;3.65;;;;;;;19.09;100.00;101405.44;5081404;28;20461;-78
2023/07/13 09:12:27;;;;;;;12.07;4.07;;;;;;;19.24;100.00;101411.75;5069043;28;20645;-78
2023/07/13 09:14:58;;;;;;;7.50;3.95;;;;;;;18.93;100.00;101408.91;5032818;28;20033;-78
2023/07/13 09:17:28;;;;;;;6.03;3.75;;;;;;;19.27;100.00;101408.88;5064573;28;20507;-78
2023/07/13 09:20:03;;;;;;;8.88;4.13;;;;;;;19.39;100.00;101413.16;5065633;28;20032;-78
2023/07/13 09:22:34;;;;;;;5.95;3.92;;;;;;;19.12;100.00;101404.63;5074294;28;20032;-78
2023/07/13 09:25:25;;;;;;;5.80;3.35;;;;;;;18.79;100.00;101409.06;5071150;28;20078;-78
2023/07/13 09:27:53;;;;;;;4.32;3.15;;;;;;;19.22;99.89;101412.16;5068531;28;20102;-78
2023/07/13 09:30:33;;;;;;;7.60;3.67;;;;;;;19.43;98.71;101407.44;5071863;28;20369;-78
2023/07/13 09:32:58;;;;;;;8.40;3.95;;;;;;;19.44;99.41;101404.19;5064049;28;20029;-78
2023/07/13 09:39:14;;;;;;;4.03;2.85;;;;;;;21.17;90.88;101410.56;5069462;28;20326;-78
2023/07/13 09:45:02;;;;;;;8.90;3.63;;;;;;;19.99;96.56;101402.16;5052273;28;20621;-77
2023/07/13 09:47:30;;;;;;;10.60;3.90;;;;;;;19.47;99.05;101403.31;5078100;28;20033;-78
2023/07/13 09:49:58;;;;;;;8.50;3.83;;;;;;;19.80;99.00;101402.88;5068342;28;20020;-78
2023/07/13 09:52:23;;;;;;;10.00;3.60;;;;;;;19.84;97.63;101397.97;5074938;28;20535;-78
2023/07/13 09:54:54;;;;;;;7.25;4.50;;;;;;;20.00;98.74;101403.75;5065730;28;20037;-78
2023/07/13 09:57:24;;;;;;;5.97;3.55;;;;;;;19.61;97.41;101399.47;5069131;28;20055;-78
2023/07/13 09:59:51;;;;;;;5.30;3.53;;;;;;;19.47;98.43;101406.16;5080582;28;20094;-78
2023/07/13 10:02:30;;;;;;;4.95;3.13;;;;;;;19.28;97.96;101401.94;5076102;28;20594;-78
2023/07/13 10:04:58;;;;;;;8.32;3.33;;;;;;;19.25;99.25;101402.81;5061294;28;20032;-78
2023/07/13 10:07:24;;;;;;;11.27;4.25;;;;;;;19.04;100.00;101412.41;5064032;28;20020;-78
2023/07/13 10:10:02;;;;;;;7.78;3.33;;;;;;;19.01;100.00;101450.13;5063451;28;20052;-78
2023/07/13 10:12:30;;;;;;;5.10;2.47;;;;;;;18.17;100.00;101459.81;5060728;28;20123;-77
2023/07/13 10:14:58;;;;;;;7.18;2.58;;;;;;;17.79;100.00;101476.63;5061705;28;20060;-76
2023/07/13 10:17:30;;;;;;;6.97;2.42;;;;;;;17.63;100.00;101465.78;5060819;28;20043;-78
2023/07/13 10:20:05;;;;;;;3.67;1.88;;;;;;;17.87;100.00;101464.03;5066913;28;20093;-79
2023/07/13 10:22:54;;;;;;;4.45;2.13;;;;;;;17.92;100.00;101462.81;5061384;28;20484;-79
2023/07/13 10:25:23;;;;;;;4.00;2.30;;;;;;;17.97;100.00;101456.72;5065296;28;20469;-79
2023/07/13 10:27:53;;;;;;;3.15;2.25;;;;;;;18.17;100.00;101454.16;5062867;28;20043;-79
2023/07/13 10:30:25;;;;;;;5.53;2.17;;;;;;;18.17;100.00;101453.31;5065414;28;20542;-79
2023/07/13 10:32:52;;;;;;;5.60;2.75;;;;;;;18.14;100.00;101463.47;5063109;28;20031;-79
2023/07/13 10:35:20;;;;;;;3.88;1.92;;;;;;;18.27;100.00;101463.78;5079862;28;20044;-79
2023/07/13 10:38:06;;;;;;;5.93;3.00;;;;;;;18.25;100.00;101460.53;5073887;28;21318;-79
2023/07/13 10:40:37;;;;;;;6.30;2.92;;;;;;;18.22;100.00;101461.41;5064127;28;20095;-79
2023/07/13 10:43:10;;;;;;;5.70;3.55;;;;;;;18.20;100.00;101461.81;5065618;28;20040;-79
2023/07/13 10:45:37;;;;;;;6.80;3.20;;;;;;;18.61;100.00;101454.56;5056511;28;20135;-79
2023/07/13 10:48:04;;;;;;;5.20;3.28;;;;;;;18.75;100.00;101465.78;5064882;28;20115;-79
2023/07/13 10:50:32;;;;;;;5.43;3.97;;;;;;;18.18;100.00;101449.28;5061423;28;20028;-79
2023/07/13 10:53:18;;;;;;;6.55;3.60;;;;;;;18.72;100.00;101466.63;5077766;28;20028;-79
2023/07/13 10:55:50;;;;;;;4.40;3.03;;;;;;;19.05;100.00;101469.94;5075565;28;20563;-79
2023/07/13 10:58:33;;;;;;;5.28;4.43;;;;;;;19.14;100.00;101463.75;5067235;28;20048;-78
2023/07/13 11:01:10;;;;;;;7.35;2.90;;;;;;;19.34;100.00;101470.41;5063539;28;20037;-78
2023/07/13 11:03:53;;;;;;;5.07;3.30;;;;;;;19.23;100.00;101459.19;5065905;28;20119;-77
2023/07/13 11:06:39;;;;;;;5.13;3.38;;;;;;;19.23;100.00;101472.59;5079144;28;20503;-77
2023/07/13 11:09:37;;;;;;;6.57;3.60;;;;;;;18.89;100.00;101479.03;5064727;28;20028;-77
2023/07/13 11:12:09;;;;;;;7.32;3.40;;;;;;;18.84;100.00;101471.78;5066233;28;20028;-79
2023/07/13 11:14:43;;;;;;;6.32;3.17;;;;;;;18.69;100.00;101467.44;5065537;28;21545;-78
2023/07/13 11:17:49;;;;;;;8.05;3.60;;;;;;;18.98;100.00;101473.66;5064116;28;20503;-79
2023/07/13 11:20:14;;;;;;;4.93;3.22;;;;;;;19.49;100.00;101479.56;5045845;28;20131;-77
2023/07/13 11:22:47;;;;;;;6.32;3.33;;;;;;;20.03;100.00;101479.63;5060546;28;20493;-77
2023/07/13 11:25:32;;;;;;;3.83;2.60;;;;;;;20.76;98.49;101476.41;5061097;28;20139;-77
2023/07/13 11:28:17;;;;;;;3.80;2.63;;;;;;;20.85;97.70;101473.81;5057303;28;20036;-77
2023/07/13 11:30:57;;;;;;;5.00;2.65;;;;;;;21.80;91.53;101475.16;5055419;28;20036;-78
2023/07/13 11:33:37;;;;;;;4.97;2.80;;;;;;;21.90;91.34;101476.13;5056711;28;20487;-78
2023/07/13 11:36:13;;;;;;;9.10;3.42;;;;;;;21.74;92.19;101474.06;5075603;28;20039;-78
2023/07/13 11:38:55;;;;;;;8.48;4.57;;;;;;;21.15;100.00;101478.53;5060836;28;20064;-78
2023/07/13 11:41:29;;;;;;;8.10;4.00;;;;;;;20.67;100.00;101479.84;5062805;28;20373;-78
2023/07/13 11:44:04;;;;;;;8.80;3.92;;;;;;;20.00;100.00;101474.78;5060191;28;20460;-78
2023/07/13 11:46:30;;;;;;;7.63;4.00;;;;;;;19.98;100.00;101471.59;5059746;28;20024;-78
2023/07/13 11:48:55;;;;;;;7.80;3.38;;;;;;;19.74;100.00;101478.44;5063820;28;20365;-78
2023/07/13 11:51:31;;;;;;;6.97;3.53;;;;;;;20.02;100.00;101472.34;5061867;28;20012;-78
2023/07/13 11:53:59;;;;;;;10.32;3.65;;;;;;;20.20;100.00;101465.59;5059906;28;20489;-78
2023/07/13 11:56:25;;;;;;;6.60;3.53;;;;;;;20.22;100.00;101471.66;5061770;28;20037;-78
2023/07/13 11:58:54;;;;;;;8.80;4.38;;;;;;;20.00;100.00;101469.13;5061833;28;20496;-78
2023/07/13 12:01:32;;;;;;;7.07;3.83;;;;;;;19.83;100.00;101470.19;5064561;28;20489;-78
2023/07/13 12:04:00;;;;;;;6.80;3.80;;;;;;;20.05;100.00;101477.16;5063611;28;20024;-78
2023/07/13 12:06:30;;;;;;;5.93;3.17;;;;;;;20.44;100.00;101470.03;5061232;28;20442;-78
2023/07/13 12:08:58;;;;;;;8.77;3.75;;;;;;;20.52;94.95;101470.72;5061365;28;20545;-77
2023/07/13 12:11:23;;;;;;;3.55;3.17;;;;;;;20.66;96.05;101475.38;5050591;28;20123;-79
2023/07/13 12:13:49;;;;;;;5.07;3.15;;;;;;;20.47;95.37;101474.03;5057051;28;20073;-79
2023/07/13 12:16:23;;;;;;;8.93;3.70;;;;;;;20.40;96.22;101468.50;5055026;28;20105;-79
2023/07/13 12:18:49;;;;;;;7.32;3.50;;;;;;;20.43;94.12;101465.59;5050681;28;20028;-79
2023/07/13 12:21:18;;;;;;;4.60;3.00;;;;;;;20.41;95.84;101481.47;5052371;28;20272;-79
2023/07/13 12:23:47;;;;;;;5.80;2.90;;;;;;;20.49;94.60;101477.25;5064142;28;20028;-79
2023/07/13 12:26:13;;;;;;;7.32;3.45;;;;;;;20.28;92.45;101476.41;5056855;28;20021;-80
2023/07/13 12:28:48;;;;;;;5.22;3.10;;;;;;;20.61;91.37;101490.09;5068868;28;20484;-80